sensor_id;sensor_type;location;lat;lon;timestamp;P1;durP1;ratioP1;P2;durP2;ratioP2
70832;SDS011;71099;59.528;17.886;2024-03-02T00:01:09;28.90;;;14.25;;
70832;SDS011;71099;59.528;17.886;2024-03-02T00:03:36;25.05;;;14.77;;
70832;SDS011;71099;59.528;17.886;2024-03-02T00:06:03;31.40;;;15.27;;
70832;SDS011;71099;59.528;17.886;2024-03-02T00:08:29;29.17;;;14.73;;
70832;SDS011;71099;59.528;17.886;2024-03-02T00:10:58;25.13;;;14.15;;
70832;SDS011;71099;59.528;17.886;2024-03-02T00:13:24;24.08;;;12.73;;
70832;SDS011;71099;59.528;17.886;2024-03-02T00:15:53;21.48;;;12.60;;
70832;SDS011;71099;59.528;17.886;2024-03-02T00:18:27;25.65;;;13.32;;
70832;SDS011;71099;59.528;17.886;2024-03-02T00:23:22;26.83;;;14.45;;
70832;SDS011;71099;59.528;17.886;2024-03-02T00:25:53;30.05;;;15.48;;
70832;SDS011;71099;59.528;17.886;2024-03-02T00:30:52;22.90;;;12.77;;
70832;SDS011;71099;59.528;17.886;2024-03-02T00:33:22;29.02;;;14.50;;
70832;SDS011;71099;59.528;17.886;2024-03-02T00:35:49;25.75;;;14.00;;
70832;SDS011;71099;59.528;17.886;2024-03-02T00:38:15;25.83;;;13.80;;
70832;SDS011;71099;59.528;17.886;2024-03-02T00:40:41;26.27;;;15.65;;
70832;SDS011;71099;59.528;17.886;2024-03-02T00:43:11;31.50;;;14.80;;
70832;SDS011;71099;59.528;17.886;2024-03-02T00:45:57;28.70;;;15.05;;
70832;SDS011;71099;59.528;17.886;2024-03-02T00:48:22;24.50;;;14.20;;
70832;SDS011;71099;59.528;17.886;2024-03-02T00:50:50;28.42;;;14.85;;
70832;SDS011;71099;59.528;17.886;2024-03-02T00:53:17;26.20;;;14.30;;
70832;SDS011;71099;59.528;17.886;2024-03-02T00:55:49;28.92;;;16.25;;
70832;SDS011;71099;59.528;17.886;2024-03-02T00:58:15;36.50;;;16.75;;
70832;SDS011;71099;59.528;17.886;2024-03-02T01:00:40;25.85;;;15.43;;
70832;SDS011;71099;59.528;17.886;2024-03-02T01:03:06;29.20;;;15.93;;
70832;SDS011;71099;59.528;17.886;2024-03-02T01:05:32;29.58;;;15.00;;
70832;SDS011;71099;59.528;17.886;2024-03-02T01:07:58;30.65;;;16.48;;
70832;SDS011;71099;59.528;17.886;2024-03-02T01:10:23;24.27;;;16.05;;
70832;SDS011;71099;59.528;17.886;2024-03-02T01:12:50;28.00;;;15.50;;
70832;SDS011;71099;59.528;17.886;2024-03-02T01:15:16;26.27;;;15.13;;
70832;SDS011;71099;59.528;17.886;2024-03-02T01:17:42;31.48;;;16.95;;
70832;SDS011;71099;59.528;17.886;2024-03-02T01:20:07;24.45;;;14.75;;
70832;SDS011;71099;59.528;17.886;2024-03-02T01:22:34;29.48;;;15.05;;
70832;SDS011;71099;59.528;17.886;2024-03-02T01:25:01;32.03;;;15.73;;
70832;SDS011;71099;59.528;17.886;2024-03-02T01:27:26;29.00;;;15.55;;
70832;SDS011;71099;59.528;17.886;2024-03-02T01:29:52;29.27;;;14.98;;
70832;SDS011;71099;59.528;17.886;2024-03-02T01:32:17;27.60;;;15.65;;
70832;SDS011;71099;59.528;17.886;2024-03-02T01:34:43;30.13;;;15.95;;
70832;SDS011;71099;59.528;17.886;2024-03-02T01:37:08;34.40;;;16.58;;
70832;SDS011;71099;59.528;17.886;2024-03-02T01:39:35;27.52;;;14.82;;
70832;SDS011;71099;59.528;17.886;2024-03-02T01:42:00;29.55;;;15.77;;
70832;SDS011;71099;59.528;17.886;2024-03-02T01:44:26;35.03;;;16.58;;
70832;SDS011;71099;59.528;17.886;2024-03-02T01:46:51;29.45;;;16.83;;
70832;SDS011;71099;59.528;17.886;2024-03-02T01:49:17;27.48;;;16.15;;
70832;SDS011;71099;59.528;17.886;2024-03-02T01:51:43;27.40;;;15.05;;
70832;SDS011;71099;59.528;17.886;2024-03-02T01:54:09;22.17;;;14.27;;
70832;SDS011;71099;59.528;17.886;2024-03-02T01:56:34;27.77;;;15.05;;
70832;SDS011;71099;59.528;17.886;2024-03-02T01:59:00;30.23;;;16.10;;
70832;SDS011;71099;59.528;17.886;2024-03-02T02:01:25;26.98;;;15.77;;
70832;SDS011;71099;59.528;17.886;2024-03-02T02:03:51;26.08;;;14.30;;
70832;SDS011;71099;59.528;17.886;2024-03-02T02:06:17;32.38;;;16.40;;
70832;SDS011;71099;59.528;17.886;2024-03-02T02:08:42;29.33;;;15.35;;
70832;SDS011;71099;59.528;17.886;2024-03-02T02:11:08;28.02;;;16.67;;
70832;SDS011;71099;59.528;17.886;2024-03-02T02:13:33;28.98;;;14.23;;
70832;SDS011;71099;59.528;17.886;2024-03-02T02:16:08;34.85;;;16.85;;
70832;SDS011;71099;59.528;17.886;2024-03-02T02:18:34;28.67;;;17.92;;
70832;SDS011;71099;59.528;17.886;2024-03-02T02:21:01;27.70;;;16.48;;
70832;SDS011;71099;59.528;17.886;2024-03-02T02:23:27;32.58;;;16.90;;
70832;SDS011;71099;59.528;17.886;2024-03-02T02:25:52;25.55;;;14.80;;
70832;SDS011;71099;59.528;17.886;2024-03-02T02:28:17;32.65;;;16.08;;
70832;SDS011;71099;59.528;17.886;2024-03-02T02:30:43;27.67;;;14.70;;
70832;SDS011;71099;59.528;17.886;2024-03-02T02:33:08;32.22;;;15.98;;
70832;SDS011;71099;59.528;17.886;2024-03-02T02:35:34;27.77;;;16.20;;
70832;SDS011;71099;59.528;17.886;2024-03-02T02:37:59;34.10;;;17.52;;
70832;SDS011;71099;59.528;17.886;2024-03-02T02:40:26;26.42;;;15.02;;
70832;SDS011;71099;59.528;17.886;2024-03-02T02:42:51;25.70;;;14.65;;
70832;SDS011;71099;59.528;17.886;2024-03-02T02:45:17;26.40;;;15.75;;
70832;SDS011;71099;59.528;17.886;2024-03-02T02:47:43;29.60;;;15.38;;
70832;SDS011;71099;59.528;17.886;2024-03-02T02:50:10;36.10;;;17.85;;
70832;SDS011;71099;59.528;17.886;2024-03-02T02:52:37;29.35;;;17.33;;
70832;SDS011;71099;59.528;17.886;2024-03-02T02:55:05;27.98;;;16.02;;
70832;SDS011;71099;59.528;17.886;2024-03-02T02:57:35;26.35;;;14.98;;
70832;SDS011;71099;59.528;17.886;2024-03-02T03:00:06;35.78;;;16.80;;
70832;SDS011;71099;59.528;17.886;2024-03-02T03:02:36;37.67;;;16.42;;
70832;SDS011;71099;59.528;17.886;2024-03-02T03:05:02;29.13;;;17.75;;
70832;SDS011;71099;59.528;17.886;2024-03-02T03:07:28;28.83;;;16.15;;
70832;SDS011;71099;59.528;17.886;2024-03-02T03:09:53;32.92;;;17.55;;
70832;SDS011;71099;59.528;17.886;2024-03-02T03:12:19;28.02;;;15.02;;
70832;SDS011;71099;59.528;17.886;2024-03-02T03:14:44;31.75;;;16.60;;
70832;SDS011;71099;59.528;17.886;2024-03-02T03:17:10;31.33;;;16.92;;
70832;SDS011;71099;59.528;17.886;2024-03-02T03:19:35;28.00;;;16.10;;
70832;SDS011;71099;59.528;17.886;2024-03-02T03:22:03;36.25;;;19.55;;
70832;SDS011;71099;59.528;17.886;2024-03-02T03:24:28;27.70;;;14.95;;
70832;SDS011;71099;59.528;17.886;2024-03-02T03:26:54;36.33;;;18.73;;
70832;SDS011;71099;59.528;17.886;2024-03-02T03:29:19;30.02;;;16.05;;
70832;SDS011;71099;59.528;17.886;2024-03-02T03:31:44;34.70;;;16.90;;
70832;SDS011;71099;59.528;17.886;2024-03-02T03:34:10;31.67;;;16.77;;
70832;SDS011;71099;59.528;17.886;2024-03-02T03:36:37;28.23;;;15.50;;
70832;SDS011;71099;59.528;17.886;2024-03-02T03:39:02;40.30;;;18.55;;
70832;SDS011;71099;59.528;17.886;2024-03-02T03:41:28;33.47;;;16.30;;
70832;SDS011;71099;59.528;17.886;2024-03-02T03:43:53;28.17;;;16.40;;
70832;SDS011;71099;59.528;17.886;2024-03-02T03:46:19;32.17;;;17.17;;
70832;SDS011;71099;59.528;17.886;2024-03-02T03:48:45;31.38;;;17.17;;
70832;SDS011;71099;59.528;17.886;2024-03-02T03:51:10;43.63;;;19.52;;
70832;SDS011;71099;59.528;17.886;2024-03-02T03:53:35;34.85;;;17.77;;
70832;SDS011;71099;59.528;17.886;2024-03-02T03:56:01;29.92;;;15.75;;
70832;SDS011;71099;59.528;17.886;2024-03-02T03:58:26;35.10;;;19.67;;
70832;SDS011;71099;59.528;17.886;2024-03-02T04:00:52;38.20;;;17.42;;
70832;SDS011;71099;59.528;17.886;2024-03-02T04:03:17;30.88;;;17.75;;
70832;SDS011;71099;59.528;17.886;2024-03-02T04:05:43;33.67;;;18.33;;
70832;SDS011;71099;59.528;17.886;2024-03-02T04:08:08;29.30;;;16.58;;
70832;SDS011;71099;59.528;17.886;2024-03-02T04:10:34;29.38;;;16.80;;
70832;SDS011;71099;59.528;17.886;2024-03-02T04:13:00;27.60;;;16.02;;
70832;SDS011;71099;59.528;17.886;2024-03-02T04:15:25;35.38;;;18.73;;
70832;SDS011;71099;59.528;17.886;2024-03-02T04:17:51;36.83;;;16.90;;
70832;SDS011;71099;59.528;17.886;2024-03-02T04:20:16;34.40;;;19.08;;
70832;SDS011;71099;59.528;17.886;2024-03-02T04:22:41;35.92;;;18.77;;
70832;SDS011;71099;59.528;17.886;2024-03-02T04:25:07;38.72;;;18.15;;
70832;SDS011;71099;59.528;17.886;2024-03-02T04:27:35;33.17;;;18.02;;
70832;SDS011;71099;59.528;17.886;2024-03-02T04:30:01;31.45;;;16.52;;
70832;SDS011;71099;59.528;17.886;2024-03-02T04:32:27;32.78;;;16.55;;
70832;SDS011;71099;59.528;17.886;2024-03-02T04:34:52;29.40;;;17.20;;
70832;SDS011;71099;59.528;17.886;2024-03-02T04:37:18;40.65;;;20.70;;
70832;SDS011;71099;59.528;17.886;2024-03-02T04:39:43;33.30;;;18.10;;
70832;SDS011;71099;59.528;17.886;2024-03-02T04:42:09;29.60;;;17.55;;
70832;SDS011;71099;59.528;17.886;2024-03-02T04:44:34;34.33;;;16.45;;
70832;SDS011;71099;59.528;17.886;2024-03-02T04:47:00;30.58;;;17.38;;
70832;SDS011;71099;59.528;17.886;2024-03-02T04:49:25;30.10;;;16.23;;
70832;SDS011;71099;59.528;17.886;2024-03-02T04:51:50;30.73;;;16.33;;
70832;SDS011;71099;59.528;17.886;2024-03-02T04:54:16;34.95;;;17.33;;
70832;SDS011;71099;59.528;17.886;2024-03-02T04:56:41;33.85;;;17.45;;
70832;SDS011;71099;59.528;17.886;2024-03-02T04:59:14;30.33;;;17.00;;
70832;SDS011;71099;59.528;17.886;2024-03-02T05:01:40;35.05;;;17.98;;
70832;SDS011;71099;59.528;17.886;2024-03-02T05:04:05;31.23;;;17.60;;
70832;SDS011;71099;59.528;17.886;2024-03-02T05:06:30;40.15;;;17.23;;
70832;SDS011;71099;59.528;17.886;2024-03-02T05:08:56;36.00;;;18.42;;
70832;SDS011;71099;59.528;17.886;2024-03-02T05:11:21;33.30;;;17.45;;
70832;SDS011;71099;59.528;17.886;2024-03-02T05:14:02;30.23;;;17.17;;
70832;SDS011;71099;59.528;17.886;2024-03-02T05:16:28;33.00;;;18.17;;
70832;SDS011;71099;59.528;17.886;2024-03-02T05:18:53;35.22;;;17.15;;
70832;SDS011;71099;59.528;17.886;2024-03-02T05:21:19;35.47;;;18.83;;
70832;SDS011;71099;59.528;17.886;2024-03-02T05:23:44;41.65;;;21.90;;
70832;SDS011;71099;59.528;17.886;2024-03-02T05:26:09;33.80;;;18.48;;
70832;SDS011;71099;59.528;17.886;2024-03-02T05:28:38;35.33;;;20.35;;
70832;SDS011;71099;59.528;17.886;2024-03-02T05:31:03;31.80;;;17.60;;
70832;SDS011;71099;59.528;17.886;2024-03-02T05:33:29;35.53;;;18.23;;
70832;SDS011;71099;59.528;17.886;2024-03-02T05:35:56;43.70;;;19.45;;
70832;SDS011;71099;59.528;17.886;2024-03-02T05:38:23;33.00;;;18.73;;
70832;SDS011;71099;59.528;17.886;2024-03-02T05:40:48;38.08;;;21.10;;
70832;SDS011;71099;59.528;17.886;2024-03-02T05:43:14;35.03;;;18.05;;
70832;SDS011;71099;59.528;17.886;2024-03-02T05:45:39;33.15;;;16.77;;
70832;SDS011;71099;59.528;17.886;2024-03-02T05:48:05;36.33;;;18.30;;
70832;SDS011;71099;59.528;17.886;2024-03-02T05:50:32;38.88;;;19.77;;
70832;SDS011;71099;59.528;17.886;2024-03-02T05:52:58;31.52;;;19.38;;
70832;SDS011;71099;59.528;17.886;2024-03-02T05:55:23;35.00;;;18.77;;
70832;SDS011;71099;59.528;17.886;2024-03-02T05:57:49;33.90;;;17.35;;
70832;SDS011;71099;59.528;17.886;2024-03-02T06:00:28;32.92;;;17.48;;
70832;SDS011;71099;59.528;17.886;2024-03-02T06:02:53;34.20;;;17.60;;
70832;SDS011;71099;59.528;17.886;2024-03-02T06:05:19;34.88;;;17.73;;
70832;SDS011;71099;59.528;17.886;2024-03-02T06:07:44;39.95;;;18.92;;
70832;SDS011;71099;59.528;17.886;2024-03-02T06:10:10;35.22;;;18.30;;
70832;SDS011;71099;59.528;17.886;2024-03-02T06:12:36;39.70;;;18.58;;
70832;SDS011;71099;59.528;17.886;2024-03-02T06:15:01;39.42;;;20.40;;
70832;SDS011;71099;59.528;17.886;2024-03-02T06:17:27;37.80;;;20.02;;
70832;SDS011;71099;59.528;17.886;2024-03-02T06:19:52;43.30;;;20.77;;
70832;SDS011;71099;59.528;17.886;2024-03-02T06:22:17;55.55;;;21.50;;
70832;SDS011;71099;59.528;17.886;2024-03-02T06:24:44;32.63;;;17.73;;
70832;SDS011;71099;59.528;17.886;2024-03-02T06:27:09;34.47;;;18.40;;
70832;SDS011;71099;59.528;17.886;2024-03-02T06:29:35;47.45;;;19.42;;
70832;SDS011;71099;59.528;17.886;2024-03-02T06:32:00;40.95;;;19.05;;
70832;SDS011;71099;59.528;17.886;2024-03-02T06:34:26;44.33;;;20.92;;
70832;SDS011;71099;59.528;17.886;2024-03-02T06:36:51;41.88;;;21.48;;
70832;SDS011;71099;59.528;17.886;2024-03-02T06:39:17;45.92;;;20.85;;
70832;SDS011;71099;59.528;17.886;2024-03-02T06:41:42;36.08;;;18.65;;
70832;SDS011;71099;59.528;17.886;2024-03-02T06:44:08;44.50;;;20.88;;
70832;SDS011;71099;59.528;17.886;2024-03-02T06:46:33;46.03;;;21.10;;
70832;SDS011;71099;59.528;17.886;2024-03-02T06:48:59;40.13;;;19.50;;
70832;SDS011;71099;59.528;17.886;2024-03-02T06:51:24;41.90;;;19.23;;
70832;SDS011;71099;59.528;17.886;2024-03-02T06:53:49;37.90;;;18.75;;
70832;SDS011;71099;59.528;17.886;2024-03-02T06:56:15;47.10;;;21.20;;
70832;SDS011;71099;59.528;17.886;2024-03-02T06:58:40;45.78;;;21.55;;
70832;SDS011;71099;59.528;17.886;2024-03-02T07:01:06;40.17;;;20.42;;
70832;SDS011;71099;59.528;17.886;2024-03-02T07:03:31;44.75;;;20.67;;
70832;SDS011;71099;59.528;17.886;2024-03-02T07:05:57;39.58;;;19.75;;
70832;SDS011;71099;59.528;17.886;2024-03-02T07:08:23;39.45;;;21.33;;
70832;SDS011;71099;59.528;17.886;2024-03-02T07:10:48;45.05;;;21.85;;
70832;SDS011;71099;59.528;17.886;2024-03-02T07:13:14;38.95;;;20.38;;
70832;SDS011;71099;59.528;17.886;2024-03-02T07:15:39;40.08;;;20.27;;
70832;SDS011;71099;59.528;17.886;2024-03-02T07:18:23;35.15;;;18.65;;
70832;SDS011;71099;59.528;17.886;2024-03-02T07:20:49;39.53;;;18.42;;
70832;SDS011;71099;59.528;17.886;2024-03-02T07:23:14;38.83;;;19.42;;
70832;SDS011;71099;59.528;17.886;2024-03-02T07:25:40;36.45;;;18.17;;
70832;SDS011;71099;59.528;17.886;2024-03-02T07:28:05;46.83;;;18.27;;
70832;SDS011;71099;59.528;17.886;2024-03-02T07:30:32;35.00;;;17.65;;
70832;SDS011;71099;59.528;17.886;2024-03-02T07:32:58;47.42;;;19.83;;
70832;SDS011;71099;59.528;17.886;2024-03-02T07:35:24;38.25;;;18.73;;
70832;SDS011;71099;59.528;17.886;2024-03-02T07:37:52;35.85;;;18.73;;
70832;SDS011;71099;59.528;17.886;2024-03-02T07:40:18;41.13;;;19.42;;
70832;SDS011;71099;59.528;17.886;2024-03-02T07:42:45;34.97;;;18.42;;
70832;SDS011;71099;59.528;17.886;2024-03-02T07:45:10;49.20;;;21.15;;
70832;SDS011;71099;59.528;17.886;2024-03-02T07:47:36;37.35;;;19.38;;
70832;SDS011;71099;59.528;17.886;2024-03-02T07:50:02;42.25;;;18.88;;
70832;SDS011;71099;59.528;17.886;2024-03-02T07:52:28;36.72;;;17.88;;
70832;SDS011;71099;59.528;17.886;2024-03-02T07:54:54;41.92;;;20.00;;
70832;SDS011;71099;59.528;17.886;2024-03-02T07:57:20;38.75;;;18.25;;
70832;SDS011;71099;59.528;17.886;2024-03-02T07:59:45;31.40;;;17.42;;
70832;SDS011;71099;59.528;17.886;2024-03-02T08:02:12;35.58;;;19.20;;
70832;SDS011;71099;59.528;17.886;2024-03-02T08:04:37;36.45;;;18.50;;
70832;SDS011;71099;59.528;17.886;2024-03-02T08:07:03;40.67;;;18.17;;
70832;SDS011;71099;59.528;17.886;2024-03-02T08:09:29;38.08;;;18.17;;
70832;SDS011;71099;59.528;17.886;2024-03-02T08:11:54;38.03;;;17.20;;
70832;SDS011;71099;59.528;17.886;2024-03-02T08:14:21;34.67;;;17.48;;
70832;SDS011;71099;59.528;17.886;2024-03-02T08:16:47;40.60;;;17.65;;
70832;SDS011;71099;59.528;17.886;2024-03-02T08:19:12;31.88;;;16.35;;
70832;SDS011;71099;59.528;17.886;2024-03-02T08:21:38;33.72;;;16.95;;
70832;SDS011;71099;59.528;17.886;2024-03-02T08:24:03;31.08;;;16.50;;
70832;SDS011;71099;59.528;17.886;2024-03-02T08:26:29;31.70;;;15.32;;
70832;SDS011;71099;59.528;17.886;2024-03-02T08:28:56;34.67;;;15.70;;
70832;SDS011;71099;59.528;17.886;2024-03-02T08:31:22;30.55;;;15.68;;
70832;SDS011;71099;59.528;17.886;2024-03-02T08:33:48;27.38;;;14.07;;
70832;SDS011;71099;59.528;17.886;2024-03-02T08:36:13;32.75;;;16.40;;
70832;SDS011;71099;59.528;17.886;2024-03-02T08:38:39;34.35;;;15.88;;
70832;SDS011;71099;59.528;17.886;2024-03-02T08:41:05;31.73;;;15.32;;
70832;SDS011;71099;59.528;17.886;2024-03-02T08:43:32;37.70;;;15.98;;
70832;SDS011;71099;59.528;17.886;2024-03-02T08:45:58;32.03;;;14.77;;
70832;SDS011;71099;59.528;17.886;2024-03-02T08:48:23;25.33;;;15.30;;
70832;SDS011;71099;59.528;17.886;2024-03-02T08:50:49;27.35;;;15.20;;
70832;SDS011;71099;59.528;17.886;2024-03-02T08:53:14;30.90;;;15.38;;
70832;SDS011;71099;59.528;17.886;2024-03-02T08:55:46;27.05;;;14.50;;
70832;SDS011;71099;59.528;17.886;2024-03-02T08:58:12;31.00;;;15.48;;
70832;SDS011;71099;59.528;17.886;2024-03-02T09:00:37;38.38;;;16.17;;
70832;SDS011;71099;59.528;17.886;2024-03-02T09:03:03;26.25;;;14.20;;
70832;SDS011;71099;59.528;17.886;2024-03-02T09:05:28;33.40;;;14.40;;
70832;SDS011;71099;59.528;17.886;2024-03-02T09:07:54;24.88;;;15.02;;
70832;SDS011;71099;59.528;17.886;2024-03-02T09:10:20;25.23;;;13.57;;
70832;SDS011;71099;59.528;17.886;2024-03-02T09:12:45;30.83;;;15.00;;
70832;SDS011;71099;59.528;17.886;2024-03-02T09:15:11;31.77;;;14.65;;
70832;SDS011;71099;59.528;17.886;2024-03-02T09:17:37;31.70;;;15.68;;
70832;SDS011;71099;59.528;17.886;2024-03-02T09:20:02;27.35;;;14.63;;
70832;SDS011;71099;59.528;17.886;2024-03-02T09:22:29;32.10;;;14.50;;
70832;SDS011;71099;59.528;17.886;2024-03-02T09:24:55;26.63;;;14.57;;
70832;SDS011;71099;59.528;17.886;2024-03-02T09:27:20;25.70;;;14.32;;
70832;SDS011;71099;59.528;17.886;2024-03-02T09:29:46;28.42;;;15.25;;
70832;SDS011;71099;59.528;17.886;2024-03-02T09:32:14;28.10;;;13.77;;
70832;SDS011;71099;59.528;17.886;2024-03-02T09:34:40;24.20;;;13.45;;
70832;SDS011;71099;59.528;17.886;2024-03-02T09:37:06;29.00;;;14.35;;
70832;SDS011;71099;59.528;17.886;2024-03-02T09:39:32;22.23;;;12.40;;
70832;SDS011;71099;59.528;17.886;2024-03-02T09:41:57;23.48;;;13.07;;
70832;SDS011;71099;59.528;17.886;2024-03-02T09:44:23;23.85;;;14.55;;
70832;SDS011;71099;59.528;17.886;2024-03-02T09:46:50;29.13;;;13.23;;
70832;SDS011;71099;59.528;17.886;2024-03-02T09:49:16;20.60;;;12.25;;
70832;SDS011;71099;59.528;17.886;2024-03-02T09:51:44;27.30;;;13.15;;
70832;SDS011;71099;59.528;17.886;2024-03-02T09:54:12;22.45;;;12.73;;
70832;SDS011;71099;59.528;17.886;2024-03-02T09:56:38;24.42;;;12.85;;
70832;SDS011;71099;59.528;17.886;2024-03-02T09:59:04;26.70;;;13.68;;
70832;SDS011;71099;59.528;17.886;2024-03-02T10:01:30;25.58;;;15.15;;
70832;SDS011;71099;59.528;17.886;2024-03-02T10:03:57;22.13;;;12.15;;
70832;SDS011;71099;59.528;17.886;2024-03-02T10:06:25;31.35;;;13.50;;
70832;SDS011;71099;59.528;17.886;2024-03-02T10:08:53;21.42;;;11.93;;
70832;SDS011;71099;59.528;17.886;2024-03-02T10:11:32;19.73;;;12.48;;
70832;SDS011;71099;59.528;17.886;2024-03-02T10:16:33;23.52;;;13.27;;
70832;SDS011;71099;59.528;17.886;2024-03-02T10:19:19;22.17;;;11.75;;
70832;SDS011;71099;59.528;17.886;2024-03-02T10:24:18;25.77;;;12.85;;
70832;SDS011;71099;59.528;17.886;2024-03-02T10:26:44;22.27;;;13.10;;
70832;SDS011;71099;59.528;17.886;2024-03-02T10:29:10;23.05;;;12.85;;
70832;SDS011;71099;59.528;17.886;2024-03-02T10:31:41;20.88;;;12.45;;
70832;SDS011;71099;59.528;17.886;2024-03-02T10:34:07;21.35;;;12.20;;
70832;SDS011;71099;59.528;17.886;2024-03-02T10:36:33;20.33;;;11.55;;
70832;SDS011;71099;59.528;17.886;2024-03-02T10:39:05;20.15;;;11.90;;
70832;SDS011;71099;59.528;17.886;2024-03-02T10:41:32;23.20;;;12.30;;
70832;SDS011;71099;59.528;17.886;2024-03-02T10:43:59;19.08;;;11.13;;
70832;SDS011;71099;59.528;17.886;2024-03-02T10:46:28;24.80;;;12.18;;
70832;SDS011;71099;59.528;17.886;2024-03-02T10:48:55;26.75;;;12.82;;
70832;SDS011;71099;59.528;17.886;2024-03-02T10:51:23;23.75;;;11.65;;
70832;SDS011;71099;59.528;17.886;2024-03-02T10:53:49;22.52;;;12.57;;
70832;SDS011;71099;59.528;17.886;2024-03-02T10:56:16;18.90;;;11.52;;
70832;SDS011;71099;59.528;17.886;2024-03-02T10:58:50;24.90;;;12.68;;
70832;SDS011;71099;59.528;17.886;2024-03-02T11:01:20;19.27;;;12.23;;
70832;SDS011;71099;59.528;17.886;2024-03-02T11:03:46;27.50;;;13.30;;
70832;SDS011;71099;59.528;17.886;2024-03-02T11:06:13;19.20;;;10.70;;
70832;SDS011;71099;59.528;17.886;2024-03-02T11:08:38;19.85;;;10.85;;
70832;SDS011;71099;59.528;17.886;2024-03-02T11:11:06;21.38;;;12.80;;
70832;SDS011;71099;59.528;17.886;2024-03-02T11:13:36;17.48;;;10.20;;
70832;SDS011;71099;59.528;17.886;2024-03-02T11:16:16;19.30;;;11.85;;
70832;SDS011;71099;59.528;17.886;2024-03-02T11:19:07;17.75;;;11.25;;
70832;SDS011;71099;59.528;17.886;2024-03-02T11:21:35;22.10;;;12.23;;
70832;SDS011;71099;59.528;17.886;2024-03-02T11:26:46;22.00;;;12.13;;
70832;SDS011;71099;59.528;17.886;2024-03-02T11:32:06;16.73;;;11.20;;
70832;SDS011;71099;59.528;17.886;2024-03-02T11:34:39;16.92;;;10.65;;
70832;SDS011;71099;59.528;17.886;2024-03-02T11:37:10;18.42;;;10.35;;
70832;SDS011;71099;59.528;17.886;2024-03-02T11:39:36;17.15;;;10.90;;
70832;SDS011;71099;59.528;17.886;2024-03-02T11:42:05;28.38;;;13.05;;
70832;SDS011;71099;59.528;17.886;2024-03-02T11:44:32;22.63;;;11.77;;
70832;SDS011;71099;59.528;17.886;2024-03-02T11:47:01;20.35;;;12.25;;
70832;SDS011;71099;59.528;17.886;2024-03-02T11:49:46;22.20;;;11.25;;
70832;SDS011;71099;59.528;17.886;2024-03-02T11:52:15;20.30;;;11.65;;
70832;SDS011;71099;59.528;17.886;2024-03-02T11:54:44;22.50;;;11.32;;
70832;SDS011;71099;59.528;17.886;2024-03-02T11:57:22;24.70;;;12.55;;
70832;SDS011;71099;59.528;17.886;2024-03-02T11:59:48;17.08;;;11.30;;
70832;SDS011;71099;59.528;17.886;2024-03-02T12:02:18;16.00;;;10.43;;
70832;SDS011;71099;59.528;17.886;2024-03-02T12:04:45;16.30;;;10.18;;
70832;SDS011;71099;59.528;17.886;2024-03-02T12:07:13;18.88;;;11.00;;
70832;SDS011;71099;59.528;17.886;2024-03-02T12:09:47;17.90;;;10.30;;
70832;SDS011;71099;59.528;17.886;2024-03-02T12:12:13;21.00;;;10.30;;
70832;SDS011;71099;59.528;17.886;2024-03-02T12:14:49;17.85;;;10.52;;
70832;SDS011;71099;59.528;17.886;2024-03-02T12:17:16;18.25;;;10.40;;
70832;SDS011;71099;59.528;17.886;2024-03-02T12:19:41;20.25;;;10.20;;
70832;SDS011;71099;59.528;17.886;2024-03-02T12:22:07;21.33;;;11.43;;
70832;SDS011;71099;59.528;17.886;2024-03-02T12:24:32;17.63;;;10.82;;
70832;SDS011;71099;59.528;17.886;2024-03-02T12:26:58;19.00;;;10.90;;
70832;SDS011;71099;59.528;17.886;2024-03-02T12:29:24;19.63;;;10.85;;
70832;SDS011;71099;59.528;17.886;2024-03-02T12:31:50;19.90;;;10.68;;
70832;SDS011;71099;59.528;17.886;2024-03-02T12:34:20;18.33;;;10.15;;
70832;SDS011;71099;59.528;17.886;2024-03-02T12:36:47;17.35;;;10.43;;
70832;SDS011;71099;59.528;17.886;2024-03-02T12:39:15;17.08;;;10.13;;
70832;SDS011;71099;59.528;17.886;2024-03-02T12:41:41;18.50;;;10.90;;
70832;SDS011;71099;59.528;17.886;2024-03-02T12:44:07;19.08;;;10.50;;
70832;SDS011;71099;59.528;17.886;2024-03-02T12:46:33;17.65;;;10.80;;
70832;SDS011;71099;59.528;17.886;2024-03-02T12:49:04;21.67;;;10.07;;
70832;SDS011;71099;59.528;17.886;2024-03-02T12:51:32;23.10;;;12.23;;
70832;SDS011;71099;59.528;17.886;2024-03-02T12:53:58;16.92;;;10.68;;
70832;SDS011;71099;59.528;17.886;2024-03-02T12:56:25;13.00;;;9.23;;
70832;SDS011;71099;59.528;17.886;2024-03-02T12:58:54;20.52;;;11.55;;
70832;SDS011;71099;59.528;17.886;2024-03-02T13:01:20;19.88;;;11.05;;
70832;SDS011;71099;59.528;17.886;2024-03-02T13:03:49;18.30;;;10.07;;
70832;SDS011;71099;59.528;17.886;2024-03-02T13:06:16;25.67;;;11.60;;
70832;SDS011;71099;59.528;17.886;2024-03-02T13:08:42;22.90;;;10.90;;
70832;SDS011;71099;59.528;17.886;2024-03-02T13:11:08;19.23;;;11.75;;
70832;SDS011;71099;59.528;17.886;2024-03-02T13:13:34;21.70;;;10.20;;
70832;SDS011;71099;59.528;17.886;2024-03-02T13:16:00;16.02;;;9.93;;
70832;SDS011;71099;59.528;17.886;2024-03-02T13:18:25;19.23;;;9.52;;
70832;SDS011;71099;59.528;17.886;2024-03-02T13:20:54;21.02;;;10.73;;
70832;SDS011;71099;59.528;17.886;2024-03-02T13:23:21;17.63;;;9.32;;
70832;SDS011;71099;59.528;17.886;2024-03-02T13:25:49;21.05;;;11.40;;
70832;SDS011;71099;59.528;17.886;2024-03-02T13:28:14;16.23;;;9.63;;
70832;SDS011;71099;59.528;17.886;2024-03-02T13:30:40;21.67;;;10.30;;
70832;SDS011;71099;59.528;17.886;2024-03-02T13:33:06;20.50;;;10.48;;
70832;SDS011;71099;59.528;17.886;2024-03-02T13:35:35;18.70;;;12.25;;
70832;SDS011;71099;59.528;17.886;2024-03-02T13:38:00;36.10;;;21.48;;
70832;SDS011;71099;59.528;17.886;2024-03-02T13:40:25;23.33;;;14.77;;
70832;SDS011;71099;59.528;17.886;2024-03-02T13:42:52;16.27;;;9.15;;
70832;SDS011;71099;59.528;17.886;2024-03-02T13:45:19;20.50;;;9.82;;
70832;SDS011;71099;59.528;17.886;2024-03-02T13:47:44;15.90;;;8.82;;
70832;SDS011;71099;59.528;17.886;2024-03-02T13:50:10;16.83;;;9.75;;
70832;SDS011;71099;59.528;17.886;2024-03-02T13:52:38;20.15;;;9.88;;
70832;SDS011;71099;59.528;17.886;2024-03-02T13:55:04;21.13;;;11.02;;
70832;SDS011;71099;59.528;17.886;2024-03-02T13:57:29;18.33;;;9.93;;
70832;SDS011;71099;59.528;17.886;2024-03-02T13:59:55;18.70;;;11.10;;
70832;SDS011;71099;59.528;17.886;2024-03-02T14:02:21;17.75;;;9.75;;
70832;SDS011;71099;59.528;17.886;2024-03-02T14:04:48;22.33;;;11.23;;
70832;SDS011;71099;59.528;17.886;2024-03-02T14:07:14;16.55;;;9.57;;
70832;SDS011;71099;59.528;17.886;2024-03-02T14:09:40;18.20;;;10.48;;
70832;SDS011;71099;59.528;17.886;2024-03-02T14:12:06;15.95;;;9.27;;
70832;SDS011;71099;59.528;17.886;2024-03-02T14:14:32;17.02;;;9.30;;
70832;SDS011;71099;59.528;17.886;2024-03-02T14:16:58;16.60;;;10.32;;
70832;SDS011;71099;59.528;17.886;2024-03-02T14:19:31;15.60;;;9.85;;
70832;SDS011;71099;59.528;17.886;2024-03-02T14:21:57;17.63;;;10.38;;